Time;durP1;ratioP1;P1;durP2;ratioP2;P2;SDS_P1;SDS_P2;PMS_P1;PMS_P2;Temp;Humidity;BMP_temperature;BMP_pressure;BME280_temperature;BME280_humidity;BME280_pressure;Samples;Min_cycle;Max_cycle;Signal;HPM_P1;HPM_P2
2023/01/25 00:00:41;;;;;;;45.60;40.70;;;;;;;1.27;100.00;103734.28;5003377;28;20912;-50
2023/01/25 00:03:10;;;;;;;45.93;41.37;;;;;;;1.26;100.00;103715.94;5003083;28;20466;-50
2023/01/25 00:05:37;;;;;;;45.73;40.80;;;;;;;1.25;100.00;103728.25;5003348;28;20422;-47
2023/01/25 00:08:06;;;;;;;43.20;38.53;;;;;;;1.29;100.00;103723.69;5003300;28;20464;-47
2023/01/25 00:10:33;;;;;;;45.90;40.90;;;;;;;1.25;100.00;103716.88;5002915;28;20441;-47
2023/01/25 00:13:01;;;;;;;44.83;40.23;;;;;;;1.25;100.00;103719.50;5002731;28;20470;-47
2023/01/25 00:15:28;;;;;;;42.83;38.53;;;;;;;1.27;100.00;103715.88;5002662;28;20474;-48
2023/01/25 00:17:56;;;;;;;46.23;41.53;;;;;;;1.24;100.00;103708.13;5003384;28;20485;-48
2023/01/25 00:20:26;;;;;;;46.53;41.90;;;;;;;1.24;100.00;103710.75;5003999;28;20442;-50
2023/01/25 00:22:53;;;;;;;46.57;41.87;;;;;;;1.29;100.00;103721.91;5002191;28;20473;-51
2023/01/25 00:25:21;;;;;;;48.43;43.43;;;;;;;1.28;100.00;103720.25;5002400;28;20801;-45
2023/01/25 00:27:49;;;;;;;48.70;43.87;;;;;;;1.28;100.00;103720.25;5002650;28;20461;-50
2023/01/25 00:30:17;;;;;;;49.33;43.77;;;;;;;1.30;100.00;103715.75;5003222;28;20426;-46
2023/01/25 00:32:52;;;;;;;46.50;41.70;;;;;;;1.28;100.00;103708.84;5002552;28;20879;-45
2023/01/25 00:35:21;;;;;;;49.67;44.30;;;;;;;1.27;100.00;103715.03;5002163;28;20473;-50
2023/01/25 00:37:53;;;;;;;59.23;45.83;;;;;;;1.26;100.00;103708.91;5003022;28;20470;-51
2023/01/25 00:40:21;;;;;;;47.80;42.90;;;;;;;1.15;100.00;103705.03;5003300;28;20461;-48
2023/01/25 00:42:48;;;;;;;55.10;45.70;;;;;;;1.15;100.00;103707.66;5002618;28;20489;-46
2023/01/25 00:45:16;;;;;;;49.50;43.77;;;;;;;1.14;100.00;103706.78;5003277;28;20430;-48
2023/01/25 00:47:44;;;;;;;46.20;41.40;;;;;;;1.14;100.00;103706.78;5002663;28;20458;-46
2023/01/25 00:50:12;;;;;;;51.13;44.80;;;;;;;1.13;100.00;103708.56;5002772;28;20796;-44
2023/01/25 00:52:40;;;;;;;46.17;41.17;;;;;;;1.14;100.00;103704.16;5002751;28;20860;-52
2023/01/25 00:55:09;;;;;;;48.90;42.00;;;;;;;1.13;100.00;103706.88;5002743;28;20849;-52
2023/01/25 00:57:37;;;;;;;50.70;43.50;;;;;;;1.08;100.00;103704.41;5002744;28;20470;-45
2023/01/25 01:00:06;;;;;;;47.80;42.73;;;;;;;1.05;100.00;103699.28;5002758;28;20433;-51
2023/01/25 01:02:33;;;;;;;47.00;42.17;;;;;;;1.05;100.00;103696.66;5002534;28;20472;-45
2023/01/25 01:05:01;;;;;;;47.53;42.03;;;;;;;1.02;100.00;103697.63;5002886;28;20422;-45
2023/01/25 01:07:29;;;;;;;45.40;40.53;;;;;;;1.02;100.00;103695.00;5002551;28;20461;-49
2023/01/25 01:09:58;;;;;;;49.00;43.20;;;;;;;1.04;100.00;103687.09;5001974;28;20453;-46
2023/01/25 01:12:27;;;;;;;47.00;41.87;;;;;;;1.10;100.00;103677.19;5001857;28;20561;-47
2023/01/25 01:14:55;;;;;;;45.00;40.10;;;;;;;1.08;100.00;103670.25;5001532;28;20438;-46
2023/01/25 01:17:23;;;;;;;48.60;43.60;;;;;;;1.05;100.00;103668.59;5002016;28;20544;-52
2023/01/25 01:19:50;;;;;;;48.30;42.90;;;;;;;1.08;100.00;103663.22;5002342;28;20434;-48
2023/01/25 01:22:18;;;;;;;46.33;41.70;;;;;;;1.06;100.00;103659.81;5001241;28;20462;-50
2023/01/25 01:24:48;;;;;;;49.43;43.50;;;;;;;1.06;100.00;103656.31;5002274;28;20433;-44
2023/01/25 01:27:15;;;;;;;47.43;42.40;;;;;;;1.06;100.00;103665.06;5004714;28;20524;-45
2023/01/25 01:29:44;;;;;;;48.20;42.67;;;;;;;1.04;100.00;103666.06;5005985;28;20505;-51
2023/01/25 01:32:12;;;;;;;46.23;41.40;;;;;;;1.07;100.00;103665.94;5006302;28;20522;-46
2023/01/25 01:34:40;;;;;;;51.60;43.23;;;;;;;1.09;100.00;103658.81;5006208;28;20778;-49
2023/01/25 01:37:07;;;;;;;54.50;45.00;;;;;;;1.03;100.00;103654.69;5005825;28;20478;-50
2023/01/25 01:39:35;;;;;;;44.53;39.63;;;;;;;1.04;100.00;103653.78;5006343;28;20434;-48
2023/01/25 01:42:03;;;;;;;54.50;45.73;;;;;;;1.07;100.00;103663.31;5006133;28;20819;-45
2023/01/25 01:44:46;;;;;;;50.43;42.93;;;;;;;1.04;100.00;103655.56;5005655;28;20811;-45
2023/01/25 01:47:18;;;;;;;48.40;41.00;;;;;;;0.96;100.00;103653.22;5005982;28;20446;-52
2023/01/25 01:49:51;;;;;;;51.23;39.97;;;;;;;0.95;100.00;103655.94;5006144;28;20569;-47
2023/01/25 01:52:24;;;;;;;43.70;39.00;;;;;;;0.88;100.00;103647.44;5005386;28;20538;-47
2023/01/25 01:54:57;;;;;;;44.57;38.87;;;;;;;0.88;100.00;103646.59;5005357;28;20434;-52
2023/01/25 01:57:29;;;;;;;45.07;38.03;;;;;;;0.87;100.00;103653.59;5005439;28;20456;-48
2023/01/25 02:00:04;;;;;;;40.87;36.73;;;;;;;0.84;100.00;103647.63;5005672;28;20477;-50
2023/01/25 02:02:31;;;;;;;43.87;39.30;;;;;;;0.82;100.00;103645.06;5004876;28;20525;-48
2023/01/25 02:05:04;;;;;;;43.97;38.83;;;;;;;0.80;100.00;103648.69;5005374;28;20445;-45
2023/01/25 02:07:35;;;;;;;41.27;36.87;;;;;;;0.75;100.00;103643.59;5004851;28;20454;-51
2023/01/25 02:10:04;;;;;;;41.70;37.20;;;;;;;0.76;100.00;103647.09;5005324;28;20441;-49
2023/01/25 02:12:33;;;;;;;42.67;37.67;;;;;;;0.79;100.00;103639.06;5005261;28;20528;-48
2023/01/25 02:15:02;;;;;;;43.63;39.03;;;;;;;0.75;100.00;103640.09;5004944;28;20520;-46
2023/01/25 02:17:32;;;;;;;42.17;37.63;;;;;;;0.74;100.00;103638.41;5005609;28;20478;-47
2023/01/25 02:20:07;;;;;;;42.57;38.13;;;;;;;0.74;100.00;103635.78;5004961;28;20473;-50
2023/01/25 02:22:44;;;;;;;42.03;37.83;;;;;;;0.71;100.00;103639.41;5005139;28;20987;-46
2023/01/25 02:25:14;;;;;;;43.93;39.17;;;;;;;0.69;100.00;103637.75;5005207;28;20760;-44
2023/01/25 02:27:46;;;;;;;47.97;41.87;;;;;;;0.66;100.00;103628.22;5005944;28;20554;-45
2023/01/25 02:30:15;;;;;;;48.07;40.23;;;;;;;0.68;100.00;103636.03;5004997;28;20426;-50
2023/01/25 02:32:42;;;;;;;45.73;39.63;;;;;;;0.68;100.00;103628.16;5004303;28;20485;-46
2023/01/25 02:35:18;;;;;;;45.13;40.23;;;;;;;0.69;100.00;103629.88;5005293;28;20440;-48
2023/01/25 02:37:47;;;;;;;46.37;40.30;;;;;;;0.71;100.00;103634.16;5004937;28;20537;-48
2023/01/25 02:40:17;;;;;;;45.10;40.60;;;;;;;0.70;100.00;103624.56;5005117;28;20440;-46
2023/01/25 02:42:45;;;;;;;44.47;39.37;;;;;;;0.77;100.00;103627.78;5004275;28;20470;-48
2023/01/25 02:45:16;;;;;;;45.90;40.20;;;;;;;0.77;100.00;103617.28;5005284;28;20434;-52
2023/01/25 02:47:43;;;;;;;47.30;40.50;;;;;;;0.75;100.00;103624.34;5005177;28;20517;-49
2023/01/25 02:50:11;;;;;;;44.70;39.97;;;;;;;0.72;100.00;103621.88;5004647;28;20442;-49
2023/01/25 02:52:42;;;;;;;45.23;38.47;;;;;;;0.68;100.00;103617.66;5005279;28;20529;-47
2023/01/25 02:55:10;;;;;;;47.33;38.70;;;;;;;0.64;100.00;103622.19;5004856;28;20434;-44
2023/01/25 02:57:39;;;;;;;43.23;39.00;;;;;;;0.64;100.00;103619.56;5003419;28;20478;-49
2023/01/25 03:00:08;;;;;;;43.17;37.30;;;;;;;0.66;100.00;103619.50;5001759;28;20439;-50
2023/01/25 03:02:36;;;;;;;43.00;38.53;;;;;;;0.66;100.00;103622.97;5000731;28;20473;-51
2023/01/25 03:05:04;;;;;;;42.13;37.63;;;;;;;0.66;100.00;103616.88;5000300;28;20442;-47
2023/01/25 03:07:32;;;;;;;43.03;38.57;;;;;;;0.66;100.00;103622.13;5002441;28;20454;-44
2023/01/25 03:10:00;;;;;;;41.07;36.67;;;;;;;0.70;100.00;103613.19;4998785;28;20438;-49
2023/01/25 03:12:28;;;;;;;40.53;36.83;;;;;;;0.66;100.00;103609.00;5002632;28;20462;-45
2023/01/25 03:14:57;;;;;;;41.50;37.00;;;;;;;0.67;100.00;103608.06;5002399;28;20438;-46
2023/01/25 03:17:24;;;;;;;40.67;36.70;;;;;;;0.72;100.00;103606.13;5002344;28;20486;-47
2023/01/25 03:19:53;;;;;;;41.23;37.03;;;;;;;0.74;100.00;103609.53;5003457;28;20442;-52
2023/01/25 03:22:21;;;;;;;41.40;37.47;;;;;;;0.67;100.00;103592.31;5001837;28;20488;-46
2023/01/25 03:24:48;;;;;;;43.67;39.10;;;;;;;0.64;100.00;103593.28;5002493;28;20440;-47
2023/01/25 03:27:17;;;;;;;41.77;37.60;;;;;;;0.63;100.00;103585.50;4999821;28;20484;-48
2023/01/25 03:29:45;;;;;;;43.53;39.23;;;;;;;0.64;100.00;103584.56;5002439;28;20913;-46
2023/01/25 03:32:14;;;;;;;43.40;38.87;;;;;;;0.66;100.00;103580.94;5002938;28;20458;-52
2023/01/25 03:34:42;;;;;;;42.80;38.20;;;;;;;0.69;100.00;103580.81;5003589;28;20437;-51
2023/01/25 03:37:10;;;;;;;42.87;38.27;;;;;;;0.68;100.00;103570.38;5003651;28;20481;-46
2023/01/25 03:39:37;;;;;;;41.17;36.80;;;;;;;0.68;100.00;103567.75;5002934;28;20474;-46
2023/01/25 03:42:05;;;;;;;41.57;37.00;;;;;;;0.67;100.00;103561.66;5002901;28;20530;-50
2023/01/25 03:44:33;;;;;;;39.20;35.00;;;;;;;0.69;100.00;103566.84;5003671;28;20434;-53
2023/01/25 03:47:01;;;;;;;41.37;36.97;;;;;;;0.65;100.00;103565.25;5003793;28;20543;-50
2023/01/25 03:49:30;;;;;;;38.93;35.00;;;;;;;0.63;100.00;103553.97;5002905;28;20442;-53
2023/01/25 03:51:58;;;;;;;42.53;36.47;;;;;;;0.63;100.00;103553.97;5003192;28;20500;-45
2023/01/25 03:54:25;;;;;;;39.50;35.60;;;;;;;0.59;100.00;103563.75;5003498;28;20461;-50
2023/01/25 03:56:53;;;;;;;39.80;35.50;;;;;;;0.54;100.00;103557.81;5003232;28;20473;-51
2023/01/25 03:59:20;;;;;;;38.90;34.90;;;;;;;0.53;100.00;103556.97;5003736;28;20433;-49
2023/01/25 04:01:48;;;;;;;40.03;36.03;;;;;;;0.57;100.00;103551.59;5003527;28;20461;-46
2023/01/25 04:04:16;;;;;;;42.13;37.73;;;;;;;0.47;100.00;103540.63;5002843;28;20517;-48
2023/01/25 04:06:45;;;;;;;40.33;36.40;;;;;;;0.42;100.00;103534.69;5003111;28;20429;-49
2023/01/25 04:09:13;;;;;;;44.03;38.83;;;;;;;0.44;100.00;103538.13;5003264;28;20449;-46
2023/01/25 04:11:41;;;;;;;42.70;38.33;;;;;;;0.47;100.00;103538.00;5003513;28;20462;-49
2023/01/25 04:14:10;;;;;;;41.50;37.20;;;;;;;0.52;100.00;103539.50;5003244;28;20769;-50
2023/01/25 04:16:38;;;;;;;43.10;38.70;;;;;;;0.53;100.00;103527.25;5002560;28;20553;-50
2023/01/25 04:19:06;;;;;;;43.63;38.60;;;;;;;0.49;100.00;103521.25;5003524;28;20892;-50
2023/01/25 04:21:33;;;;;;;42.03;37.87;;;;;;;0.48;100.00;103516.91;5003206;28;20468;-49
2023/01/25 04:24:03;;;;;;;40.27;36.13;;;;;;;0.48;100.00;103514.28;5002756;28;20887;-48
2023/01/25 04:26:30;;;;;;;47.27;40.37;;;;;;;0.49;100.00;103516.00;5002435;28;20448;-52
2023/01/25 04:28:58;;;;;;;45.70;40.23;;;;;;;0.46;100.00;103516.13;5002262;28;20967;-53
2023/01/25 04:31:26;;;;;;;43.93;39.23;;;;;;;0.43;100.00;103515.41;5002584;28;21011;-50
2023/01/25 04:33:55;;;;;;;45.77;40.60;;;;;;;0.46;100.00;103516.13;5002320;28;20458;-50
2023/01/25 04:36:23;;;;;;;44.20;39.27;;;;;;;0.43;100.00;103507.53;5003097;28;20431;-47
2023/01/25 04:38:50;;;;;;;43.13;38.70;;;;;;;0.42;100.00;103511.91;5002157;28;20458;-48
2023/01/25 04:41:19;;;;;;;40.27;36.07;;;;;;;0.44;100.00;103507.47;5002481;28;20860;-49
2023/01/25 04:43:47;;;;;;;44.00;38.90;;;;;;;0.44;100.00;103496.97;5002259;28;20440;-48
2023/01/25 04:46:14;;;;;;;40.03;36.23;;;;;;;0.46;100.00;103492.50;5002411;28;20433;-46
2023/01/25 04:48:42;;;;;;;40.20;36.23;;;;;;;0.46;100.00;103497.75;5002635;28;20446;-49
2023/01/25 04:51:10;;;;;;;41.03;36.90;;;;;;;0.46;100.00;103497.75;5002731;28;20813;-46
2023/01/25 04:53:37;;;;;;;40.37;36.47;;;;;;;0.45;100.00;103488.16;5002904;28;20436;-48
2023/01/25 04:56:06;;;;;;;42.27;38.07;;;;;;;0.45;100.00;103488.16;5002789;28;20433;-49
2023/01/25 04:58:35;;;;;;;41.33;36.87;;;;;;;0.51;100.00;103489.69;5002755;28;20505;-47
2023/01/25 05:01:04;;;;;;;40.33;36.13;;;;;;;0.51;100.00;103487.06;5003054;28;20815;-47
2023/01/25 05:03:32;;;;;;;40.90;36.80;;;;;;;0.55;100.00;103488.63;5002904;28;20434;-48
2023/01/25 05:06:00;;;;;;;41.67;36.77;;;;;;;0.48;100.00;103485.41;5003392;28;20426;-47
2023/01/25 05:08:27;;;;;;;41.97;37.97;;;;;;;0.54;100.00;103479.03;5002258;28;20450;-53
2023/01/25 05:10:55;;;;;;;41.80;37.63;;;;;;;0.59;100.00;103479.72;5003493;28;20886;-49
2023/01/25 05:13:22;;;;;;;41.60;37.70;;;;;;;0.55;100.00;103476.38;5002864;28;20446;-47
2023/01/25 05:15:51;;;;;;;43.07;38.60;;;;;;;0.59;100.00;103477.09;5002459;28;20430;-48
2023/01/25 05:18:19;;;;;;;46.13;41.33;;;;;;;0.62;100.00;103473.47;5002501;28;20477;-53
2023/01/25 05:20:47;;;;;;;42.70;38.30;;;;;;;0.64;100.00;103471.63;5002969;28;20426;-46
2023/01/25 05:23:14;;;;;;;42.77;38.37;;;;;;;0.63;100.00;103475.19;5002187;28;20466;-48
2023/01/25 05:28:28;;;;;;;42.53;38.27;;;;;;;0.60;100.00;103475.34;5002616;28;20772;-50
2023/01/25 05:30:57;;;;;;;45.40;40.87;;;;;;;0.57;100.00;103471.03;5002796;28;20441;-49
2023/01/25 05:33:24;;;;;;;44.27;38.87;;;;;;;0.57;100.00;103474.53;5001925;28;20457;-50
2023/01/25 05:35:52;;;;;;;43.47;38.57;;;;;;;0.59;100.00;103474.47;5001684;28;20804;-49
2023/01/25 05:38:20;;;;;;;45.83;41.10;;;;;;;0.60;100.00;103472.69;5001945;28;20485;-50
2023/01/25 05:40:48;;;;;;;45.67;40.63;;;;;;;0.65;100.00;103474.22;5001977;28;20999;-47
2023/01/25 05:43:15;;;;;;;51.57;41.40;;;;;;;0.67;100.00;103476.75;5001580;28;20468;-47
2023/01/25 05:45:43;;;;;;;53.50;41.97;;;;;;;0.65;100.00;103468.09;5002260;28;20434;-45
2023/01/25 05:48:12;;;;;;;52.60;44.17;;;;;;;0.65;100.00;103466.31;5002230;28;20454;-48
2023/01/25 05:50:40;;;;;;;60.27;46.40;;;;;;;0.66;100.00;103470.63;5001613;28;20950;-49
2023/01/25 05:53:07;;;;;;;63.07;49.10;;;;;;;0.67;100.00;103461.00;5002116;28;20859;-47
2023/01/25 05:55:36;;;;;;;52.40;44.40;;;;;;;0.66;100.00;103464.56;5002434;28;20441;-49
2023/01/25 05:58:03;;;;;;;59.30;45.37;;;;;;;0.68;100.00;103471.44;5002354;28;20484;-49
2023/01/25 06:00:31;;;;;;;63.53;45.80;;;;;;;0.72;100.00;103462.50;5002578;28;20440;-44
2023/01/25 06:03:00;;;;;;;53.73;44.80;;;;;;;0.68;100.00;103460.09;5001704;28;20458;-49
2023/01/25 06:05:29;;;;;;;55.90;48.80;;;;;;;0.66;100.00;103456.69;5001774;28;20521;-50
2023/01/25 06:07:58;;;;;;;56.03;47.20;;;;;;;0.66;100.00;103448.81;5002555;28;20537;-47
2023/01/25 06:10:26;;;;;;;59.80;45.30;;;;;;;0.68;100.00;103446.94;5002512;28;20452;-47
2023/01/25 06:12:57;;;;;;;63.67;47.77;;;;;;;0.65;100.00;103447.94;5003105;28;20462;-51
2023/01/25 06:15:25;;;;;;;63.43;48.23;;;;;;;0.67;100.00;103450.50;5003820;28;20425;-50
2023/01/25 06:17:54;;;;;;;59.73;48.13;;;;;;;0.63;100.00;103444.50;5005925;28;20478;-52
2023/01/25 06:20:22;;;;;;;57.10;49.10;;;;;;;0.60;100.00;103449.06;5005515;28;20530;-51
2023/01/25 06:22:52;;;;;;;60.93;49.30;;;;;;;0.61;100.00;103440.25;5005090;28;20808;-49
2023/01/25 06:25:19;;;;;;;58.97;46.43;;;;;;;0.63;100.00;103435.81;5005381;28;20959;-46
2023/01/25 06:27:47;;;;;;;59.40;49.60;;;;;;;0.63;100.00;103438.44;5005338;28;20466;-50
2023/01/25 06:30:15;;;;;;;61.97;48.80;;;;;;;0.68;100.00;103434.69;5005789;28;20437;-48
2023/01/25 06:32:43;;;;;;;67.30;51.00;;;;;;;0.70;100.00;103435.47;5005003;28;20466;-50
2023/01/25 06:35:10;;;;;;;71.30;50.40;;;;;;;0.74;100.00;103428.31;5004970;28;20445;-48
2023/01/25 06:37:38;;;;;;;62.90;48.03;;;;;;;0.74;100.00;103429.16;5005161;28;20458;-52
2023/01/25 06:40:09;;;;;;;65.73;50.63;;;;;;;0.73;100.00;103422.19;5004765;28;20461;-46
2023/01/25 06:42:36;;;;;;;63.33;49.03;;;;;;;0.76;100.00;103415.94;5004053;28;20458;-45
2023/01/25 06:45:05;;;;;;;66.40;48.77;;;;;;;0.75;100.00;103422.09;5004998;28;20438;-52
2023/01/25 06:47:32;;;;;;;63.40;47.80;;;;;;;0.71;100.00;103424.03;5004960;28;20458;-49
2023/01/25 06:50:00;;;;;;;65.83;47.83;;;;;;;0.76;100.00;103431.69;5004678;28;20440;-49
2023/01/25 06:52:29;;;;;;;67.17;49.33;;;;;;;0.76;100.00;103419.44;5004620;28;20469;-48
2023/01/25 06:54:57;;;;;;;69.07;48.70;;;;;;;0.71;100.00;103416.16;5004207;28;20430;-50
2023/01/25 06:57:25;;;;;;;67.07;53.10;;;;;;;0.70;100.00;103413.59;5005127;28;20457;-47
2023/01/25 06:59:53;;;;;;;72.23;48.47;;;;;;;0.73;100.00;103409.06;5004640;28;20469;-48
2023/01/25 07:02:21;;;;;;;61.63;47.80;;;;;;;0.65;100.00;103415.56;5004879;28;20464;-47
2023/01/25 07:04:49;;;;;;;58.53;45.47;;;;;;;0.61;100.00;103419.25;5004385;28;20424;-46
2023/01/25 07:07:16;;;;;;;45.93;40.77;;;;;;;0.57;100.00;103411.50;5004488;28;20469;-51
2023/01/25 07:09:44;;;;;;;51.00;41.70;;;;;;;0.52;100.00;103405.59;5004426;28;20449;-50
2023/01/25 07:12:11;;;;;;;51.00;40.13;;;;;;;0.54;100.00;103403.75;5003989;28;20465;-52
2023/01/25 07:14:40;;;;;;;49.57;41.33;;;;;;;0.49;100.00;103392.63;5004509;28;20773;-50
2023/01/25 07:17:08;;;;;;;48.03;38.63;;;;;;;0.46;100.00;103403.25;5004388;28;20634;-50
2023/01/25 07:19:36;;;;;;;48.33;38.27;;;;;;;0.40;100.00;103400.88;5003759;28;20477;-48
2023/01/25 07:22:04;;;;;;;49.63;39.90;;;;;;;0.43;100.00;103397.28;5003381;28;20486;-50
2023/01/25 07:24:31;;;;;;;45.87;40.33;;;;;;;0.40;100.00;103381.66;5003271;28;20449;-48
2023/01/25 07:26:59;;;;;;;48.43;43.30;;;;;;;0.43;100.00;103381.53;5004163;28;21022;-54
2023/01/25 07:29:28;;;;;;;46.67;40.30;;;;;;;0.44;100.00;103378.84;5004316;28;20521;-49
2023/01/25 07:31:57;;;;;;;56.60;43.67;;;;;;;0.44;100.00;103391.13;5003551;28;20472;-48
2023/01/25 07:34:27;;;;;;;48.33;41.13;;;;;;;0.38;100.00;103387.00;5003347;28;20434;-48
2023/01/25 07:36:55;;;;;;;54.70;41.83;;;;;;;0.44;100.00;103393.75;5004158;28;20464;-52
2023/01/25 07:39:23;;;;;;;46.67;39.77;;;;;;;0.42;100.00;103388.53;5003444;28;20991;-48
2023/01/25 07:41:51;;;;;;;44.63;39.03;;;;;;;0.42;100.00;103388.53;5003111;28;20484;-49
2023/01/25 07:44:18;;;;;;;47.03;38.90;;;;;;;0.40;100.00;103379.88;5003844;28;20438;-48
2023/01/25 07:46:46;;;;;;;51.50;42.53;;;;;;;0.40;100.00;103373.78;5003837;28;20438;-46
2023/01/25 07:49:15;;;;;;;54.50;43.63;;;;;;;0.37;100.00;103382.66;5003875;28;20441;-48
2023/01/25 07:51:43;;;;;;;51.93;44.27;;;;;;;0.36;100.00;103372.22;5003934;28;20458;-46
2023/01/25 07:54:11;;;;;;;45.30;40.30;;;;;;;0.32;100.00;103379.38;5003529;28;20433;-46
2023/01/25 07:56:39;;;;;;;52.97;42.53;;;;;;;0.33;100.00;103381.06;5003579;28;20808;-50
2023/01/25 07:59:08;;;;;;;51.43;41.37;;;;;;;0.32;100.00;103383.78;5003732;28;20461;-50
2023/01/25 08:01:36;;;;;;;46.77;41.13;;;;;;;0.30;100.00;103383.81;5003278;28;20458;-47
2023/01/25 08:04:05;;;;;;;47.60;42.47;;;;;;;0.37;100.00;103376.53;5004000;28;20462;-47
2023/01/25 08:06:37;;;;;;;52.17;40.00;;;;;;;0.37;100.00;103377.41;5003032;28;20436;-46
2023/01/25 08:09:08;;;;;;;48.27;42.57;;;;;;;0.37;100.00;103366.91;5003333;28;20432;-46
2023/01/25 08:11:36;;;;;;;53.50;42.20;;;;;;;0.42;100.00;103364.91;5002992;28;20465;-47
2023/01/25 08:14:04;;;;;;;56.00;43.80;;;;;;;0.39;100.00;103351.94;5002703;28;20529;-49
2023/01/25 08:16:32;;;;;;;47.07;40.00;;;;;;;0.36;100.00;103357.31;5002642;28;20448;-52
2023/01/25 08:19:02;;;;;;;51.67;43.23;;;;;;;0.40;100.00;103348.38;5002900;28;20884;-50
2023/01/25 08:21:32;;;;;;;51.87;44.03;;;;;;;0.41;100.00;103347.47;5002939;28;20469;-48
2023/01/25 08:24:03;;;;;;;53.13;42.53;;;;;;;0.41;100.00;103338.75;5002394;28;20438;-48
2023/01/25 08:26:32;;;;;;;45.87;39.93;;;;;;;0.44;100.00;103344.72;5002764;28;20459;-48
2023/01/25 08:28:59;;;;;;;49.80;42.90;;;;;;;0.44;100.00;103346.50;5002952;28;20449;-48
2023/01/25 08:31:29;;;;;;;55.13;42.40;;;;;;;0.44;100.00;103354.38;5003299;28;20513;-48
2023/01/25 08:33:58;;;;;;;50.53;42.00;;;;;;;0.46;100.00;103353.38;5003342;28;20430;-45
2023/01/25 08:36:27;;;;;;;48.53;41.27;;;;;;;0.51;100.00;103353.16;5003265;28;20442;-48
2023/01/25 08:38:57;;;;;;;59.17;44.37;;;;;;;0.54;100.00;103350.38;5002060;28;21151;-49
2023/01/25 08:41:27;;;;;;;52.20;42.00;;;;;;;0.57;100.00;103345.00;5002822;28;20461;-50
2023/01/25 08:43:56;;;;;;;52.97;41.70;;;;;;;0.57;100.00;103327.47;5002335;28;20441;-51
2023/01/25 08:46:26;;;;;;;65.27;46.80;;;;;;;0.54;100.00;103326.75;5002910;28;20448;-47
2023/01/25 08:48:59;;;;;;;63.60;44.77;;;;;;;0.59;100.00;103321.31;5002792;28;20983;-47
2023/01/25 08:51:28;;;;;;;56.00;44.40;;;;;;;0.60;100.00;103317.78;5001614;28;21053;-49
2023/01/25 08:53:55;;;;;;;64.00;44.87;;;;;;;0.60;100.00;103312.53;5001708;28;20434;-44
2023/01/25 08:56:23;;;;;;;58.37;46.00;;;;;;;0.58;100.00;103312.59;5002275;28;20434;-47
2023/01/25 08:58:52;;;;;;;66.20;45.37;;;;;;;0.52;100.00;103300.59;5002723;28;20458;-48
2023/01/25 09:01:20;;;;;;;64.10;45.47;;;;;;;0.57;100.00;103307.41;5002306;28;20458;-48
2023/01/25 09:03:50;;;;;;;57.87;44.67;;;;;;;0.57;100.00;103298.59;5002367;28;20440;-52
2023/01/25 09:06:19;;;;;;;67.23;46.33;;;;;;;0.61;100.00;103301.09;5003022;28;20436;-51
2023/01/25 09:08:48;;;;;;;63.97;44.97;;;;;;;0.57;100.00;103302.16;5002982;28;20449;-49
2023/01/25 09:11:19;;;;;;;73.83;49.00;;;;;;;0.54;100.00;103297.88;5003216;28;20501;-53
2023/01/25 09:13:47;;;;;;;66.40;44.87;;;;;;;0.53;100.00;103301.44;5002754;28;20783;-47
2023/01/25 09:16:21;;;;;;;62.50;45.80;;;;;;;0.44;100.00;103286.13;5002363;28;20433;-48
2023/01/25 09:18:49;;;;;;;67.83;46.20;;;;;;;0.44;100.00;103279.09;5003302;28;20462;-50
2023/01/25 09:21:19;;;;;;;61.13;47.30;;;;;;;0.45;100.00;103290.41;5002506;28;20565;-49
2023/01/25 09:23:49;;;;;;;69.30;47.10;;;;;;;0.48;100.00;103280.63;5003095;28;20423;-49
2023/01/25 09:26:24;;;;;;;74.97;49.37;;;;;;;0.50;100.00;103276.19;5002545;28;20443;-50
2023/01/25 09:28:54;;;;;;;62.90;48.53;;;;;;;0.49;100.00;103266.59;5002564;28;20446;-52
2023/01/25 09:31:23;;;;;;;64.93;49.40;;;;;;;0.45;100.00;103265.03;5001752;28;20556;-52
2023/01/25 09:33:53;;;;;;;62.20;46.47;;;;;;;0.39;100.00;103267.94;5002693;28;20461;-48
2023/01/25 09:36:20;;;;;;;53.50;43.43;;;;;;;0.39;100.00;103256.56;5002923;28;20433;-47
2023/01/25 09:38:48;;;;;;;61.47;44.77;;;;;;;0.48;100.00;103261.41;5002358;28;20457;-49
2023/01/25 09:41:40;;;;;;;64.10;47.57;;;;;;;0.55;100.00;103258.44;5001729;28;20513;-50
2023/01/25 09:44:21;;;;;;;58.90;46.97;;;;;;;0.59;100.00;103259.16;5003049;28;20427;-48
2023/01/25 09:46:55;;;;;;;70.03;48.27;;;;;;;0.65;100.00;103248.38;5002721;28;20458;-47
2023/01/25 09:49:36;;;;;;;65.53;50.57;;;;;;;0.60;100.00;103242.47;5006107;28;20430;-48
2023/01/25 09:52:19;;;;;;;61.43;45.90;;;;;;;0.57;100.00;103243.47;5006123;28;20809;-47
2023/01/25 09:54:48;;;;;;;62.07;46.60;;;;;;;0.57;100.00;103239.97;5007023;28;20488;-50
2023/01/25 09:57:19;;;;;;;69.37;48.20;;;;;;;0.55;100.00;103244.47;5005556;28;20453;-51
2023/01/25 09:59:49;;;;;;;66.07;48.77;;;;;;;0.57;100.00;103244.41;5007212;28;20545;-48
2023/01/25 10:02:34;;;;;;;64.33;48.90;;;;;;;0.52;100.00;103253.34;5006027;28;20489;-49
2023/01/25 10:05:09;;;;;;;64.00;47.50;;;;;;;0.52;100.00;103232.31;5006075;28;20440;-48
2023/01/25 10:07:50;;;;;;;62.57;45.40;;;;;;;0.54;100.00;103234.88;5005893;28;20452;-50
2023/01/25 10:10:21;;;;;;;63.37;47.80;;;;;;;0.54;100.00;103229.63;5006236;28;20437;-51
2023/01/25 10:12:49;;;;;;;61.63;46.10;;;;;;;0.58;100.00;103233.81;5005902;28;20481;-48
2023/01/25 10:15:20;;;;;;;57.20;43.40;;;;;;;0.52;100.00;103231.47;5005855;28;20434;-51
2023/01/25 10:17:57;;;;;;;66.83;47.37;;;;;;;0.51;100.00;103235.88;5005979;28;20481;-50
2023/01/25 10:20:31;;;;;;;53.03;43.07;;;;;;;0.45;100.00;103233.53;5006044;28;20995;-49
2023/01/25 10:23:24;;;;;;;57.43;42.17;;;;;;;0.44;100.00;103223.97;5006409;28;20479;-49
2023/01/25 10:25:58;;;;;;;57.27;41.13;;;;;;;0.44;100.00;103212.59;5006562;28;20426;-49
2023/01/25 10:28:40;;;;;;;46.17;39.27;;;;;;;0.38;100.00;103219.00;5005969;28;20477;-51
2023/01/25 10:31:17;;;;;;;54.23;42.77;;;;;;;0.37;100.00;103224.31;5004876;28;20440;-47
2023/01/25 10:33:48;;;;;;;48.83;40.53;;;;;;;0.45;100.00;103222.16;5005836;28;20430;-48
2023/01/25 10:36:19;;;;;;;51.43;38.87;;;;;;;0.45;100.00;103224.78;5005517;28;20474;-46
2023/01/25 10:38:48;;;;;;;50.70;38.67;;;;;;;0.49;100.00;103208.00;5005034;28;20450;-51
2023/01/25 10:41:21;;;;;;;49.10;38.47;;;;;;;0.49;100.00;103195.72;5004827;28;20458;-53
2023/01/25 10:44:20;;;;;;;50.07;40.13;;;;;;;0.42;100.00;103196.06;5005642;28;20429;-52
2023/01/25 10:46:40;;;;;;;47.07;39.63;;;;;;;0.47;100.00;103191.47;5004792;28;21015;-47
2023/01/25 10:49:23;;;;;;;51.57;40.60;;;;;;;0.50;100.00;103184.31;5006116;28;20454;-51
2023/01/25 10:51:50;;;;;;;51.17;40.87;;;;;;;0.53;100.00;103175.44;5005110;28;21231;-52
2023/01/25 10:54:18;;;;;;;49.50;39.40;;;;;;;0.52;100.00;103174.56;5005561;28;20433;-49
2023/01/25 10:56:46;;;;;;;49.80;40.30;;;;;;;0.56;100.00;103164.78;5005091;28;20434;-52
2023/01/25 10:59:21;;;;;;;54.50;39.63;;;;;;;0.51;100.00;103154.47;5005800;28;20438;-51
2023/01/25 11:01:49;;;;;;;50.90;39.73;;;;;;;0.48;100.00;103154.63;5004539;28;20505;-48
2023/01/25 11:04:34;;;;;;;46.70;39.67;;;;;;;0.54;100.00;103143.84;5004666;28;20441;-53
2023/01/25 11:07:04;;;;;;;49.13;40.97;;;;;;;0.50;100.00;103144.94;5004228;28;20561;-53
2023/01/25 11:09:38;;;;;;;47.63;40.90;;;;;;;0.60;100.00;103139.22;5004944;28;20492;-50
2023/01/25 11:12:17;;;;;;;58.83;39.73;;;;;;;0.46;100.00;103126.75;5004741;28;20584;-46
2023/01/25 11:14:48;;;;;;;52.20;41.40;;;;;;;0.42;100.00;103133.91;5005581;28;20426;-47
2023/01/25 11:17:25;;;;;;;59.03;45.27;;;;;;;0.52;100.00;103121.22;5005200;28;20454;-47
2023/01/25 11:20:16;;;;;;;59.37;46.20;;;;;;;0.51;100.00;103114.25;5004903;28;20481;-46
2023/01/25 11:22:53;;;;;;;49.10;40.67;;;;;;;0.55;100.00;103113.19;5003357;28;20573;-48